sensor_id;sensor_type;location;lat;lon;timestamp;temperature;humidity
40964;DHT22;26693;51.168;4.138;2022-08-01T00:00:23;20.80;99.90
40964;DHT22;26693;51.168;4.138;2022-08-01T00:01:24;20.80;99.90
40964;DHT22;26693;51.168;4.138;2022-08-01T00:02:24;20.80;99.90
40964;DHT22;26693;51.168;4.138;2022-08-01T00:03:25;20.80;99.90
40964;DHT22;26693;51.168;4.138;2022-08-01T00:04:25;20.80;99.90
40964;DHT22;26693;51.168;4.138;2022-08-01T00:05:26;20.80;99.90
40964;DHT22;26693;51.168;4.138;2022-08-01T00:06:26;20.80;99.90
40964;DHT22;26693;51.168;4.138;2022-08-01T00:07:27;20.80;99.90
40964;DHT22;26693;51.168;4.138;2022-08-01T00:08:27;20.70;99.90
40964;DHT22;26693;51.168;4.138;2022-08-01T00:09:28;20.70;99.90
40964;DHT22;26693;51.168;4.138;2022-08-01T00:10:28;20.70;99.90
40964;DHT22;26693;51.168;4.138;2022-08-01T00:11:29;20.70;99.90
40964;DHT22;26693;51.168;4.138;2022-08-01T00:12:30;20.60;99.90
40964;DHT22;26693;51.168;4.138;2022-08-01T00:13:30;20.60;99.90
40964;DHT22;26693;51.168;4.138;2022-08-01T00:14:31;20.60;99.90
40964;DHT22;26693;51.168;4.138;2022-08-01T00:15:31;20.60;99.90
40964;DHT22;26693;51.168;4.138;2022-08-01T00:16:32;20.60;99.90
40964;DHT22;26693;51.168;4.138;2022-08-01T00:17:33;20.60;99.90
40964;DHT22;26693;51.168;4.138;2022-08-01T00:18:33;20.60;99.90
40964;DHT22;26693;51.168;4.138;2022-08-01T00:19:35;20.60;99.90
40964;DHT22;26693;51.168;4.138;2022-08-01T00:20:36;20.60;99.90
40964;DHT22;26693;51.168;4.138;2022-08-01T00:21:36;20.60;99.90
40964;DHT22;26693;51.168;4.138;2022-08-01T00:22:37;20.60;99.90
40964;DHT22;26693;51.168;4.138;2022-08-01T00:23:38;20.60;99.90
40964;DHT22;26693;51.168;4.138;2022-08-01T00:24:38;20.60;99.90
40964;DHT22;26693;51.168;4.138;2022-08-01T00:25:39;20.60;99.90
40964;DHT22;26693;51.168;4.138;2022-08-01T00:26:39;20.60;99.90
40964;DHT22;26693;51.168;4.138;2022-08-01T00:27:40;20.50;99.90
40964;DHT22;26693;51.168;4.138;2022-08-01T00:28:40;20.50;99.90
40964;DHT22;26693;51.168;4.138;2022-08-01T00:29:41;20.50;99.90
40964;DHT22;26693;51.168;4.138;2022-08-01T00:30:42;20.40;99.90
40964;DHT22;26693;51.168;4.138;2022-08-01T00:31:42;20.50;99.90
40964;DHT22;26693;51.168;4.138;2022-08-01T00:32:43;20.50;99.90
40964;DHT22;26693;51.168;4.138;2022-08-01T00:33:43;20.50;99.90
40964;DHT22;26693;51.168;4.138;2022-08-01T00:34:44;20.40;99.90
40964;DHT22;26693;51.168;4.138;2022-08-01T00:35:44;20.40;99.90
40964;DHT22;26693;51.168;4.138;2022-08-01T00:36:45;20.40;99.90
40964;DHT22;26693;51.168;4.138;2022-08-01T00:37:46;20.40;99.90
40964;DHT22;26693;51.168;4.138;2022-08-01T00:38:47;20.30;99.90
40964;DHT22;26693;51.168;4.138;2022-08-01T00:39:47;20.30;99.90
40964;DHT22;26693;51.168;4.138;2022-08-01T00:40:48;20.30;99.90
40964;DHT22;26693;51.168;4.138;2022-08-01T00:41:48;20.30;99.90
40964;DHT22;26693;51.168;4.138;2022-08-01T00:42:49;20.30;99.90
40964;DHT22;26693;51.168;4.138;2022-08-01T00:43:49;20.30;99.90
40964;DHT22;26693;51.168;4.138;2022-08-01T00:44:50;20.20;99.90
40964;DHT22;26693;51.168;4.138;2022-08-01T00:45:50;20.20;99.90
40964;DHT22;26693;51.168;4.138;2022-08-01T00:46:51;20.20;99.90
40964;DHT22;26693;51.168;4.138;2022-08-01T00:47:51;20.20;99.90
40964;DHT22;26693;51.168;4.138;2022-08-01T00:48:52;20.20;99.90
40964;DHT22;26693;51.168;4.138;2022-08-01T00:49:53;20.20;99.90
40964;DHT22;26693;51.168;4.138;2022-08-01T00:50:54;20.20;99.90
40964;DHT22;26693;51.168;4.138;2022-08-01T00:51:54;20.30;99.90
40964;DHT22;26693;51.168;4.138;2022-08-01T00:52:55;20.30;99.90
40964;DHT22;26693;51.168;4.138;2022-08-01T00:53:57;20.30;99.90
40964;DHT22;26693;51.168;4.138;2022-08-01T00:54:58;20.40;99.90
40964;DHT22;26693;51.168;4.138;2022-08-01T00:55:59;20.40;99.90
40964;DHT22;26693;51.168;4.138;2022-08-01T00:57:00;20.50;99.90
40964;DHT22;26693;51.168;4.138;2022-08-01T00:58:00;20.50;99.90
40964;DHT22;26693;51.168;4.138;2022-08-01T00:59:01;20.50;99.90
40964;DHT22;26693;51.168;4.138;2022-08-01T01:00:04;20.50;99.90
40964;DHT22;26693;51.168;4.138;2022-08-01T01:01:05;20.50;99.90
40964;DHT22;26693;51.168;4.138;2022-08-01T01:02:05;20.50;99.90
40964;DHT22;26693;51.168;4.138;2022-08-01T01:03:06;20.50;99.90
40964;DHT22;26693;51.168;4.138;2022-08-01T01:04:06;20.40;99.90
40964;DHT22;26693;51.168;4.138;2022-08-01T01:05:07;20.50;99.90
40964;DHT22;26693;51.168;4.138;2022-08-01T01:06:13;20.40;99.90
40964;DHT22;26693;51.168;4.138;2022-08-01T01:07:26;20.40;99.90
40964;DHT22;26693;51.168;4.138;2022-08-01T01:08:35;20.40;99.90
40964;DHT22;26693;51.168;4.138;2022-08-01T01:09:46;20.40;99.90
40964;DHT22;26693;51.168;4.138;2022-08-01T01:10:54;20.40;99.90
40964;DHT22;26693;51.168;4.138;2022-08-01T01:13:02;20.50;99.90
40964;DHT22;26693;51.168;4.138;2022-08-01T01:14:05;20.60;99.90
40964;DHT22;26693;51.168;4.138;2022-08-01T01:15:12;20.60;99.90
40964;DHT22;26693;51.168;4.138;2022-08-01T01:16:15;20.60;99.90
40964;DHT22;26693;51.168;4.138;2022-08-01T01:17:17;20.60;99.90
40964;DHT22;26693;51.168;4.138;2022-08-01T01:18:22;20.60;99.90
40964;DHT22;26693;51.168;4.138;2022-08-01T01:19:23;20.60;99.90
40964;DHT22;26693;51.168;4.138;2022-08-01T01:20:33;20.60;99.90
40964;DHT22;26693;51.168;4.138;2022-08-01T01:25:46;20.70;99.90
40964;DHT22;26693;51.168;4.138;2022-08-01T01:28:58;20.60;99.90
40964;DHT22;26693;51.168;4.138;2022-08-01T01:30:00;20.60;99.90
40964;DHT22;26693;51.168;4.138;2022-08-01T01:31:01;20.60;99.90
40964;DHT22;26693;51.168;4.138;2022-08-01T01:33:03;20.50;99.90
40964;DHT22;26693;51.168;4.138;2022-08-01T01:34:06;20.50;99.90
40964;DHT22;26693;51.168;4.138;2022-08-01T01:35:09;20.40;99.90
40964;DHT22;26693;51.168;4.138;2022-08-01T01:36:10;20.30;99.90
40964;DHT22;26693;51.168;4.138;2022-08-01T01:37:14;20.40;99.90
40964;DHT22;26693;51.168;4.138;2022-08-01T01:38:24;20.50;99.90
40964;DHT22;26693;51.168;4.138;2022-08-01T01:39:25;20.50;99.90
40964;DHT22;26693;51.168;4.138;2022-08-01T01:40:27;20.40;99.90
40964;DHT22;26693;51.168;4.138;2022-08-01T01:41:28;20.40;99.90
40964;DHT22;26693;51.168;4.138;2022-08-01T01:42:30;20.40;99.90
40964;DHT22;26693;51.168;4.138;2022-08-01T01:43:30;20.20;99.90
40964;DHT22;26693;51.168;4.138;2022-08-01T01:44:32;20.20;99.90
40964;DHT22;26693;51.168;4.138;2022-08-01T01:45:34;20.20;99.90
40964;DHT22;26693;51.168;4.138;2022-08-01T01:46:34;20.20;99.90
40964;DHT22;26693;51.168;4.138;2022-08-01T01:47:36;20.20;99.90
40964;DHT22;26693;51.168;4.138;2022-08-01T01:48:37;20.20;99.90
40964;DHT22;26693;51.168;4.138;2022-08-01T01:49:39;20.10;99.90
40964;DHT22;26693;51.168;4.138;2022-08-01T01:50:40;20.10;99.90
40964;DHT22;26693;51.168;4.138;2022-08-01T01:51:41;20.00;99.90
40964;DHT22;26693;51.168;4.138;2022-08-01T01:52:42;19.90;99.90
40964;DHT22;26693;51.168;4.138;2022-08-01T01:53:44;19.80;99.90
40964;DHT22;26693;51.168;4.138;2022-08-01T01:54:46;19.80;99.90
40964;DHT22;26693;51.168;4.138;2022-08-01T01:55:48;19.80;99.90
40964;DHT22;26693;51.168;4.138;2022-08-01T01:56:50;19.70;99.90
40964;DHT22;26693;51.168;4.138;2022-08-01T01:57:51;19.70;99.90
40964;DHT22;26693;51.168;4.138;2022-08-01T01:58:53;19.80;99.90
40964;DHT22;26693;51.168;4.138;2022-08-01T01:59:54;19.80;99.90
40964;DHT22;26693;51.168;4.138;2022-08-01T02:00:56;19.90;99.90
40964;DHT22;26693;51.168;4.138;2022-08-01T02:01:59;19.90;99.90
40964;DHT22;26693;51.168;4.138;2022-08-01T02:03:02;20.00;99.90
40964;DHT22;26693;51.168;4.138;2022-08-01T02:04:04;20.00;99.90
40964;DHT22;26693;51.168;4.138;2022-08-01T02:05:05;19.90;99.90
40964;DHT22;26693;51.168;4.138;2022-08-01T02:06:06;19.90;99.90
40964;DHT22;26693;51.168;4.138;2022-08-01T02:07:07;19.80;99.90
40964;DHT22;26693;51.168;4.138;2022-08-01T02:08:09;19.80;99.90
40964;DHT22;26693;51.168;4.138;2022-08-01T02:09:10;19.80;99.90
40964;DHT22;26693;51.168;4.138;2022-08-01T02:10:11;19.70;99.90
40964;DHT22;26693;51.168;4.138;2022-08-01T02:11:12;19.70;99.90
40964;DHT22;26693;51.168;4.138;2022-08-01T02:12:19;19.70;99.90
40964;DHT22;26693;51.168;4.138;2022-08-01T02:13:21;19.80;99.90
40964;DHT22;26693;51.168;4.138;2022-08-01T02:14:22;19.90;99.90
40964;DHT22;26693;51.168;4.138;2022-08-01T02:15:23;19.90;99.90
40964;DHT22;26693;51.168;4.138;2022-08-01T02:16:25;20.00;99.90
40964;DHT22;26693;51.168;4.138;2022-08-01T02:17:26;20.00;99.90
40964;DHT22;26693;51.168;4.138;2022-08-01T02:18:26;20.10;99.90
40964;DHT22;26693;51.168;4.138;2022-08-01T02:19:27;20.00;99.90
40964;DHT22;26693;51.168;4.138;2022-08-01T02:20:29;20.00;99.90
40964;DHT22;26693;51.168;4.138;2022-08-01T02:21:32;20.00;99.90
40964;DHT22;26693;51.168;4.138;2022-08-01T02:22:36;20.00;99.90
40964;DHT22;26693;51.168;4.138;2022-08-01T02:23:40;20.00;99.90
40964;DHT22;26693;51.168;4.138;2022-08-01T02:24:44;19.90;99.90
40964;DHT22;26693;51.168;4.138;2022-08-01T02:25:49;19.90;99.90
40964;DHT22;26693;51.168;4.138;2022-08-01T02:26:52;19.90;99.90
40964;DHT22;26693;51.168;4.138;2022-08-01T02:29:13;20.00;99.90
40964;DHT22;26693;51.168;4.138;2022-08-01T02:30:15;19.90;99.90
40964;DHT22;26693;51.168;4.138;2022-08-01T02:31:16;19.90;99.90
40964;DHT22;26693;51.168;4.138;2022-08-01T02:32:23;19.80;99.90
40964;DHT22;26693;51.168;4.138;2022-08-01T02:33:30;19.90;99.90
40964;DHT22;26693;51.168;4.138;2022-08-01T02:34:33;20.00;99.90
40964;DHT22;26693;51.168;4.138;2022-08-01T02:35:35;19.80;99.90
40964;DHT22;26693;51.168;4.138;2022-08-01T02:36:38;19.80;99.90
40964;DHT22;26693;51.168;4.138;2022-08-01T02:37:39;19.80;99.90
40964;DHT22;26693;51.168;4.138;2022-08-01T02:38:43;19.80;99.90
40964;DHT22;26693;51.168;4.138;2022-08-01T02:39:45;19.80;99.90
40964;DHT22;26693;51.168;4.138;2022-08-01T02:40:47;19.80;99.90
40964;DHT22;26693;51.168;4.138;2022-08-01T02:41:51;19.90;99.90
40964;DHT22;26693;51.168;4.138;2022-08-01T02:42:54;19.90;99.90
40964;DHT22;26693;51.168;4.138;2022-08-01T02:43:56;20.00;99.90
40964;DHT22;26693;51.168;4.138;2022-08-01T02:44:58;19.90;99.90
40964;DHT22;26693;51.168;4.138;2022-08-01T02:46:01;19.90;99.90
40964;DHT22;26693;51.168;4.138;2022-08-01T02:47:03;19.90;99.90
40964;DHT22;26693;51.168;4.138;2022-08-01T02:48:06;19.90;99.90
40964;DHT22;26693;51.168;4.138;2022-08-01T02:49:08;20.00;99.90
40964;DHT22;26693;51.168;4.138;2022-08-01T02:50:10;20.00;99.90
40964;DHT22;26693;51.168;4.138;2022-08-01T02:51:12;20.00;99.90
40964;DHT22;26693;51.168;4.138;2022-08-01T02:52:16;20.00;99.90
40964;DHT22;26693;51.168;4.138;2022-08-01T02:53:18;20.00;99.90
40964;DHT22;26693;51.168;4.138;2022-08-01T02:54:19;20.10;99.90
40964;DHT22;26693;51.168;4.138;2022-08-01T02:55:21;20.10;99.90
40964;DHT22;26693;51.168;4.138;2022-08-01T02:56:23;20.10;99.90
40964;DHT22;26693;51.168;4.138;2022-08-01T02:57:34;20.10;99.90
40964;DHT22;26693;51.168;4.138;2022-08-01T02:58:37;19.90;99.90
40964;DHT22;26693;51.168;4.138;2022-08-01T02:59:39;19.80;99.90
40964;DHT22;26693;51.168;4.138;2022-08-01T03:00:41;19.90;99.90
40964;DHT22;26693;51.168;4.138;2022-08-01T03:01:42;19.80;99.90
40964;DHT22;26693;51.168;4.138;2022-08-01T03:02:45;19.80;99.90
40964;DHT22;26693;51.168;4.138;2022-08-01T03:03:45;19.80;99.90
40964;DHT22;26693;51.168;4.138;2022-08-01T03:04:46;19.80;99.90
40964;DHT22;26693;51.168;4.138;2022-08-01T03:05:47;19.80;99.90
40964;DHT22;26693;51.168;4.138;2022-08-01T03:06:48;19.80;99.90
40964;DHT22;26693;51.168;4.138;2022-08-01T03:07:50;19.80;99.90
40964;DHT22;26693;51.168;4.138;2022-08-01T03:08:52;19.80;99.90
40964;DHT22;26693;51.168;4.138;2022-08-01T03:09:52;19.80;99.90
40964;DHT22;26693;51.168;4.138;2022-08-01T03:10:53;19.80;99.90
40964;DHT22;26693;51.168;4.138;2022-08-01T03:11:55;19.70;99.90
40964;DHT22;26693;51.168;4.138;2022-08-01T03:12:57;19.70;99.90
40964;DHT22;26693;51.168;4.138;2022-08-01T03:13:59;19.70;99.90
40964;DHT22;26693;51.168;4.138;2022-08-01T03:15:02;19.80;99.90
40964;DHT22;26693;51.168;4.138;2022-08-01T03:16:03;19.70;99.90
40964;DHT22;26693;51.168;4.138;2022-08-01T03:17:04;19.70;99.90
40964;DHT22;26693;51.168;4.138;2022-08-01T03:18:06;19.70;99.90
40964;DHT22;26693;51.168;4.138;2022-08-01T03:19:08;19.70;99.90
40964;DHT22;26693;51.168;4.138;2022-08-01T03:20:10;19.80;99.90
40964;DHT22;26693;51.168;4.138;2022-08-01T03:21:12;19.90;99.90
40964;DHT22;26693;51.168;4.138;2022-08-01T03:22:13;19.90;99.90
40964;DHT22;26693;51.168;4.138;2022-08-01T03:23:15;20.00;99.90
40964;DHT22;26693;51.168;4.138;2022-08-01T03:24:16;20.00;99.90
40964;DHT22;26693;51.168;4.138;2022-08-01T03:25:18;20.00;99.90
40964;DHT22;26693;51.168;4.138;2022-08-01T03:26:19;20.00;99.90
40964;DHT22;26693;51.168;4.138;2022-08-01T03:27:20;20.00;99.90
40964;DHT22;26693;51.168;4.138;2022-08-01T03:28:21;20.00;99.90
40964;DHT22;26693;51.168;4.138;2022-08-01T03:29:23;20.00;99.90
40964;DHT22;26693;51.168;4.138;2022-08-01T03:30:25;20.00;99.90
40964;DHT22;26693;51.168;4.138;2022-08-01T03:31:26;20.00;99.90
40964;DHT22;26693;51.168;4.138;2022-08-01T03:32:28;20.20;99.90
40964;DHT22;26693;51.168;4.138;2022-08-01T03:33:29;20.20;99.90
40964;DHT22;26693;51.168;4.138;2022-08-01T03:34:30;20.20;99.90
40964;DHT22;26693;51.168;4.138;2022-08-01T03:35:32;20.10;99.90
40964;DHT22;26693;51.168;4.138;2022-08-01T03:36:34;20.10;99.90
40964;DHT22;26693;51.168;4.138;2022-08-01T03:37:45;20.00;99.90
40964;DHT22;26693;51.168;4.138;2022-08-01T03:38:46;20.00;99.90
40964;DHT22;26693;51.168;4.138;2022-08-01T03:39:50;20.00;99.90
40964;DHT22;26693;51.168;4.138;2022-08-01T03:40:53;20.10;99.90
40964;DHT22;26693;51.168;4.138;2022-08-01T03:41:57;20.10;99.90
40964;DHT22;26693;51.168;4.138;2022-08-01T03:42:59;20.10;99.90
40964;DHT22;26693;51.168;4.138;2022-08-01T03:44:07;20.10;99.90
40964;DHT22;26693;51.168;4.138;2022-08-01T03:45:10;20.00;99.90
40964;DHT22;26693;51.168;4.138;2022-08-01T03:46:24;19.90;99.90
40964;DHT22;26693;51.168;4.138;2022-08-01T03:47:29;19.90;99.90
40964;DHT22;26693;51.168;4.138;2022-08-01T03:48:31;19.90;99.90
40964;DHT22;26693;51.168;4.138;2022-08-01T03:49:33;19.80;99.90
40964;DHT22;26693;51.168;4.138;2022-08-01T03:50:35;19.80;99.90
40964;DHT22;26693;51.168;4.138;2022-08-01T03:51:37;19.70;99.90
40964;DHT22;26693;51.168;4.138;2022-08-01T03:52:39;19.80;99.90
40964;DHT22;26693;51.168;4.138;2022-08-01T03:53:40;19.70;99.90
40964;DHT22;26693;51.168;4.138;2022-08-01T03:54:43;19.70;99.90
40964;DHT22;26693;51.168;4.138;2022-08-01T03:55:46;19.70;99.90
40964;DHT22;26693;51.168;4.138;2022-08-01T03:56:47;19.80;99.90
40964;DHT22;26693;51.168;4.138;2022-08-01T03:57:48;19.80;99.90
40964;DHT22;26693;51.168;4.138;2022-08-01T03:58:50;19.70;99.90
40964;DHT22;26693;51.168;4.138;2022-08-01T03:59:51;19.70;99.90
40964;DHT22;26693;51.168;4.138;2022-08-01T04:00:52;19.60;99.90
40964;DHT22;26693;51.168;4.138;2022-08-01T04:01:52;19.70;99.90
40964;DHT22;26693;51.168;4.138;2022-08-01T04:02:54;19.70;99.90
40964;DHT22;26693;51.168;4.138;2022-08-01T04:03:55;19.80;99.90
40964;DHT22;26693;51.168;4.138;2022-08-01T04:04:56;19.90;99.90
40964;DHT22;26693;51.168;4.138;2022-08-01T04:05:56;19.90;99.90
40964;DHT22;26693;51.168;4.138;2022-08-01T04:06:57;19.90;99.90
40964;DHT22;26693;51.168;4.138;2022-08-01T04:08:04;19.80;99.90
40964;DHT22;26693;51.168;4.138;2022-08-01T04:09:04;19.80;99.90
40964;DHT22;26693;51.168;4.138;2022-08-01T04:10:07;19.70;99.90
40964;DHT22;26693;51.168;4.138;2022-08-01T04:11:08;19.70;99.90
40964;DHT22;26693;51.168;4.138;2022-08-01T04:12:09;19.70;99.90
40964;DHT22;26693;51.168;4.138;2022-08-01T04:13:09;19.60;99.90
40964;DHT22;26693;51.168;4.138;2022-08-01T04:14:10;19.70;99.90
40964;DHT22;26693;51.168;4.138;2022-08-01T04:15:11;19.70;99.90
40964;DHT22;26693;51.168;4.138;2022-08-01T04:16:11;19.80;99.90
40964;DHT22;26693;51.168;4.138;2022-08-01T04:17:11;19.80;99.90
40964;DHT22;26693;51.168;4.138;2022-08-01T04:18:12;19.80;99.90
40964;DHT22;26693;51.168;4.138;2022-08-01T04:19:13;19.70;99.90
40964;DHT22;26693;51.168;4.138;2022-08-01T04:20:13;19.70;99.90
40964;DHT22;26693;51.168;4.138;2022-08-01T04:21:14;19.80;99.90
40964;DHT22;26693;51.168;4.138;2022-08-01T04:22:17;19.80;99.90
40964;DHT22;26693;51.168;4.138;2022-08-01T04:23:19;19.80;99.90
40964;DHT22;26693;51.168;4.138;2022-08-01T04:24:21;20.00;99.90
40964;DHT22;26693;51.168;4.138;2022-08-01T04:25:26;20.10;99.90
40964;DHT22;26693;51.168;4.138;2022-08-01T04:26:28;20.10;99.90
40964;DHT22;26693;51.168;4.138;2022-08-01T04:27:30;20.20;99.90
40964;DHT22;26693;51.168;4.138;2022-08-01T04:28:31;20.20;99.90
40964;DHT22;26693;51.168;4.138;2022-08-01T04:29:34;20.10;99.90
40964;DHT22;26693;51.168;4.138;2022-08-01T04:30:36;20.10;99.90
40964;DHT22;26693;51.168;4.138;2022-08-01T04:31:38;20.20;99.90
40964;DHT22;26693;51.168;4.138;2022-08-01T04:32:42;20.20;99.90
40964;DHT22;26693;51.168;4.138;2022-08-01T04:33:45;20.10;99.90
40964;DHT22;26693;51.168;4.138;2022-08-01T04:34:47;20.20;99.90
40964;DHT22;26693;51.168;4.138;2022-08-01T04:35:49;20.10;99.90
40964;DHT22;26693;51.168;4.138;2022-08-01T04:36:51;20.10;99.90
40964;DHT22;26693;51.168;4.138;2022-08-01T04:37:52;20.20;99.90
40964;DHT22;26693;51.168;4.138;2022-08-01T04:38:54;20.20;99.90
40964;DHT22;26693;51.168;4.138;2022-08-01T04:39:56;20.20;99.90
40964;DHT22;26693;51.168;4.138;2022-08-01T04:40:57;20.30;99.90
40964;DHT22;26693;51.168;4.138;2022-08-01T04:41:58;20.30;99.90
40964;DHT22;26693;51.168;4.138;2022-08-01T04:42:59;20.40;99.90
40964;DHT22;26693;51.168;4.138;2022-08-01T04:44:00;20.30;99.90
40964;DHT22;26693;51.168;4.138;2022-08-01T04:45:02;20.40;99.90
40964;DHT22;26693;51.168;4.138;2022-08-01T04:46:03;20.50;99.90
40964;DHT22;26693;51.168;4.138;2022-08-01T04:47:04;20.50;99.90
40964;DHT22;26693;51.168;4.138;2022-08-01T04:48:07;20.50;99.90
40964;DHT22;26693;51.168;4.138;2022-08-01T04:49:08;20.50;99.90
40964;DHT22;26693;51.168;4.138;2022-08-01T04:50:11;20.40;99.90
40964;DHT22;26693;51.168;4.138;2022-08-01T04:51:13;20.40;99.90
40964;DHT22;26693;51.168;4.138;2022-08-01T04:52:15;20.40;99.90
40964;DHT22;26693;51.168;4.138;2022-08-01T04:53:18;20.50;99.90
40964;DHT22;26693;51.168;4.138;2022-08-01T04:54:19;20.50;99.90
40964;DHT22;26693;51.168;4.138;2022-08-01T04:55:21;20.60;99.90
40964;DHT22;26693;51.168;4.138;2022-08-01T04:56:22;20.50;99.90
40964;DHT22;26693;51.168;4.138;2022-08-01T04:57:22;20.60;99.90
40964;DHT22;26693;51.168;4.138;2022-08-01T04:58:23;20.50;99.90
40964;DHT22;26693;51.168;4.138;2022-08-01T04:59:23;20.50;99.90
40964;DHT22;26693;51.168;4.138;2022-08-01T05:00:39;20.60;99.90
40964;DHT22;26693;51.168;4.138;2022-08-01T05:01:40;20.60;99.90
40964;DHT22;26693;51.168;4.138;2022-08-01T05:02:40;20.70;99.90
40964;DHT22;26693;51.168;4.138;2022-08-01T05:03:41;20.70;99.90
40964;DHT22;26693;51.168;4.138;2022-08-01T05:04:42;20.70;99.90
40964;DHT22;26693;51.168;4.138;2022-08-01T05:05:43;20.60;99.90
40964;DHT22;26693;51.168;4.138;2022-08-01T05:06:43;20.70;99.90
40964;DHT22;26693;51.168;4.138;2022-08-01T05:07:44;20.80;99.90
40964;DHT22;26693;51.168;4.138;2022-08-01T05:08:44;20.80;99.90
40964;DHT22;26693;51.168;4.138;2022-08-01T05:09:46;20.80;99.90
40964;DHT22;26693;51.168;4.138;2022-08-01T05:10:46;20.80;99.90
40964;DHT22;26693;51.168;4.138;2022-08-01T05:11:47;20.90;99.90
40964;DHT22;26693;51.168;4.138;2022-08-01T05:12:47;20.90;99.90
40964;DHT22;26693;51.168;4.138;2022-08-01T05:13:48;20.80;99.90
40964;DHT22;26693;51.168;4.138;2022-08-01T05:14:49;20.80;99.90
40964;DHT22;26693;51.168;4.138;2022-08-01T05:15:49;20.90;99.90
40964;DHT22;26693;51.168;4.138;2022-08-01T05:16:50;20.80;99.90
40964;DHT22;26693;51.168;4.138;2022-08-01T05:17:50;20.70;99.90
40964;DHT22;26693;51.168;4.138;2022-08-01T05:18:51;20.80;99.90
40964;DHT22;26693;51.168;4.138;2022-08-01T05:19:52;20.80;99.90
40964;DHT22;26693;51.168;4.138;2022-08-01T05:20:52;20.90;99.90
40964;DHT22;26693;51.168;4.138;2022-08-01T05:21:53;20.90;99.90
40964;DHT22;26693;51.168;4.138;2022-08-01T05:22:54;20.90;99.90
40964;DHT22;26693;51.168;4.138;2022-08-01T05:23:54;21.00;99.90
40964;DHT22;26693;51.168;4.138;2022-08-01T05:24:55;21.00;99.90
40964;DHT22;26693;51.168;4.138;2022-08-01T05:25:55;21.00;99.90
40964;DHT22;26693;51.168;4.138;2022-08-01T05:26:56;21.00;99.90
40964;DHT22;26693;51.168;4.138;2022-08-01T05:27:56;21.00;99.90
40964;DHT22;26693;51.168;4.138;2022-08-01T05:28:57;21.00;99.90
40964;DHT22;26693;51.168;4.138;2022-08-01T05:29:58;21.00;99.90
40964;DHT22;26693;51.168;4.138;2022-08-01T05:30:58;20.90;99.90
40964;DHT22;26693;51.168;4.138;2022-08-01T05:31:59;20.90;99.90
40964;DHT22;26693;51.168;4.138;2022-08-01T05:32:59;20.90;99.90
40964;DHT22;26693;51.168;4.138;2022-08-01T05:34:03;20.90;99.90
40964;DHT22;26693;51.168;4.138;2022-08-01T05:35:04;20.80;99.90
40964;DHT22;26693;51.168;4.138;2022-08-01T05:36:04;20.90;99.90
40964;DHT22;26693;51.168;4.138;2022-08-01T05:37:05;21.00;99.90
40964;DHT22;26693;51.168;4.138;2022-08-01T05:38:07;21.00;99.90
40964;DHT22;26693;51.168;4.138;2022-08-01T05:39:08;21.00;99.90
40964;DHT22;26693;51.168;4.138;2022-08-01T05:40:08;21.00;99.90
40964;DHT22;26693;51.168;4.138;2022-08-01T05:41:09;21.00;99.90
40964;DHT22;26693;51.168;4.138;2022-08-01T05:42:10;21.00;99.90
40964;DHT22;26693;51.168;4.138;2022-08-01T05:43:11;21.00;99.90
40964;DHT22;26693;51.168;4.138;2022-08-01T05:44:11;21.00;99.90
40964;DHT22;26693;51.168;4.138;2022-08-01T05:45:12;21.00;99.90
40964;DHT22;26693;51.168;4.138;2022-08-01T05:46:12;21.00;99.90
40964;DHT22;26693;51.168;4.138;2022-08-01T05:47:13;21.00;99.90
40964;DHT22;26693;51.168;4.138;2022-08-01T05:48:13;21.00;99.90
40964;DHT22;26693;51.168;4.138;2022-08-01T05:49:14;20.80;99.90
40964;DHT22;26693;51.168;4.138;2022-08-01T05:50:15;20.70;99.90
40964;DHT22;26693;51.168;4.138;2022-08-01T05:51:15;20.60;99.90
40964;DHT22;26693;51.168;4.138;2022-08-01T05:52:16;20.60;99.90
40964;DHT22;26693;51.168;4.138;2022-08-01T05:53:16;20.70;99.90
40964;DHT22;26693;51.168;4.138;2022-08-01T05:54:17;20.70;99.90
40964;DHT22;26693;51.168;4.138;2022-08-01T05:55:17;20.70;99.90
40964;DHT22;26693;51.168;4.138;2022-08-01T05:56:18;20.80;99.90
40964;DHT22;26693;51.168;4.138;2022-08-01T05:57:19;20.80;99.90
40964;DHT22;26693;51.168;4.138;2022-08-01T05:58:19;20.90;99.90
40964;DHT22;26693;51.168;4.138;2022-08-01T05:59:20;21.00;99.90
40964;DHT22;26693;51.168;4.138;2022-08-01T06:00:21;21.10;99.90
40964;DHT22;26693;51.168;4.138;2022-08-01T06:01:21;21.00;99.90
40964;DHT22;26693;51.168;4.138;2022-08-01T06:02:22;20.90;99.90
40964;DHT22;26693;51.168;4.138;2022-08-01T06:03:22;20.90;99.90
40964;DHT22;26693;51.168;4.138;2022-08-01T06:04:23;21.00;99.90
40964;DHT22;26693;51.168;4.138;2022-08-01T06:05:23;21.10;99.90
40964;DHT22;26693;51.168;4.138;2022-08-01T06:06:24;21.10;99.90
40964;DHT22;26693;51.168;4.138;2022-08-01T06:07:25;21.20;99.90
40964;DHT22;26693;51.168;4.138;2022-08-01T06:08:26;21.20;99.90
40964;DHT22;26693;51.168;4.138;2022-08-01T06:09:26;21.30;99.90
40964;DHT22;26693;51.168;4.138;2022-08-01T06:10:27;21.30;99.90
40964;DHT22;26693;51.168;4.138;2022-08-01T06:11:27;21.40;99.90
40964;DHT22;26693;51.168;4.138;2022-08-01T06:12:28;21.40;99.90
40964;DHT22;26693;51.168;4.138;2022-08-01T06:13:28;21.40;99.90
40964;DHT22;26693;51.168;4.138;2022-08-01T06:14:29;21.40;99.90
40964;DHT22;26693;51.168;4.138;2022-08-01T06:15:30;21.40;99.90
40964;DHT22;26693;51.168;4.138;2022-08-01T06:16:31;21.20;99.90
40964;DHT22;26693;51.168;4.138;2022-08-01T06:17:31;21.30;99.90
40964;DHT22;26693;51.168;4.138;2022-08-01T06:18:32;21.20;99.90
40964;DHT22;26693;51.168;4.138;2022-08-01T06:19:32;21.20;99.90
40964;DHT22;26693;51.168;4.138;2022-08-01T06:20:33;21.30;99.90
40964;DHT22;26693;51.168;4.138;2022-08-01T06:21:33;21.30;99.90
40964;DHT22;26693;51.168;4.138;2022-08-01T06:22:34;21.20;99.90
40964;DHT22;26693;51.168;4.138;2022-08-01T06:23:34;21.20;99.90
40964;DHT22;26693;51.168;4.138;2022-08-01T06:24:35;21.00;99.90
40964;DHT22;26693;51.168;4.138;2022-08-01T06:25:36;21.10;99.90
40964;DHT22;26693;51.168;4.138;2022-08-01T06:26:36;21.20;99.90
40964;DHT22;26693;51.168;4.138;2022-08-01T06:27:37;21.20;99.90
40964;DHT22;26693;51.168;4.138;2022-08-01T06:28:38;21.20;99.90
40964;DHT22;26693;51.168;4.138;2022-08-01T06:29:38;21.00;99.90
40964;DHT22;26693;51.168;4.138;2022-08-01T06:30:39;20.90;99.90
40964;DHT22;26693;51.168;4.138;2022-08-01T06:31:40;21.00;99.90
40964;DHT22;26693;51.168;4.138;2022-08-01T06:32:40;20.80;99.90
40964;DHT22;26693;51.168;4.138;2022-08-01T06:33:41;21.00;99.90
40964;DHT22;26693;51.168;4.138;2022-08-01T06:34:41;21.10;99.90
40964;DHT22;26693;51.168;4.138;2022-08-01T06:35:42;21.20;99.90
40964;DHT22;26693;51.168;4.138;2022-08-01T06:36:43;21.20;99.90
40964;DHT22;26693;51.168;4.138;2022-08-01T06:37:44;21.20;99.90
40964;DHT22;26693;51.168;4.138;2022-08-01T06:38:47;21.10;99.90